< Typhoon 201705 2017 Season Typhoon 201707 >
Typhoon 201706 (KULAP)
General InformationDetailed Track InformationTrack Information on Google MapsForecast History on Google MapsAccess Analytics MapList of All Images || NewsDisaster Info.WeblogTrackbackTyphoon FrontTwiphoonTyphoon Now!Typhoon ImaginationJMA Disaster Info. XMLResourceGoogle EarthGE AnimationAtom FeedGeoJSON
Detalied Best Track Wind (Time Zone = UTC)
Year Month Day Hour Lat. Long. Wind (kt) Gust (kt) Direc. of Major Storm Axis Radius of Major Storm Axis (nm) Radius of Minor Storm Axis (nm) Direc. of Major Gale Axis Radius of Major Gale Axis (nm) Radius of Minor Gale Axis (nm) Image
2017 7 20 00 23.0 178.1 0 0 - - - - - - Image
2017 7 20 06 23.4 177.7 0 0 - - - - - - Image
2017 7 20 12 24.0 177.4 0 0 - - - - - - Image
2017 7 20 18 24.6 177.2 0 0 - - - - - - Image
2017 7 21 00 25.2 177.1 0 0 - - - - - - Image
2017 7 21 06 26.4 177.3 35 0 - - - N 120 90 Image
2017 7 21 12 28.2 176.8 35 0 - - - N 120 90 Image
2017 7 21 18 30.3 175.1 40 0 - - - N 180 120 Image
2017 7 22 00 30.5 172.2 40 0 - - - N 180 120 Image
2017 7 22 06 30.0 170.6 40 0 - - - N 180 120 Image
2017 7 22 12 30.0 169.6 40 0 - - - N 180 120 Image
2017 7 22 18 30.4 168.3 40 0 - - - N 180 120 Image
2017 7 23 00 30.6 167.3 40 0 - - - N 180 120 Image
2017 7 23 06 30.8 166.5 40 0 - - - N 180 120 Image
2017 7 23 12 31.1 165.5 40 0 - - - N 180 120 Image
2017 7 23 18 31.4 164.3 40 0 - - - N 180 120 Image
2017 7 24 00 31.9 163.3 40 0 - - - N 180 120 Image
2017 7 24 06 32.6 161.7 40 0 - - - NE 160 90 Image
2017 7 24 12 33.0 160.1 40 0 - - - NE 160 90 Image
2017 7 24 18 33.2 158.3 35 0 - - - NE 160 90 Image
2017 7 25 00 33.0 156.5 35 0 - - - NE 120 90 Image
2017 7 25 06 32.8 155.0 35 0 - - - NE 120 90 Image
2017 7 25 12 32.3 153.7 35 0 - - - NE 120 90 Image
2017 7 25 18 32.0 152.3 0 0 - - - - - - Image
2017 7 26 00 31.7 151.1 0 0 - - - - - - Image
2017 7 26 06 31.2 149.9 0 0 - - - - - - Image
2017 7 26 12 30.2 148.8 0 0 - - - - - - Image
2017 7 26 18 29.2 147.8 0 0 - - - - - - Image
2017 7 27 00 28.1 147.1 0 0 - - - - - - Image
2017 7 27 06 26.9 147.5 0 0 - - - - - - Image
2017 7 27 12 25.9 148.5 0 0 - - - - - - Image
2017 7 27 18 26.3 149.0 0 0 - - - - - - Image
2017 7 28 00 27.1 149.2 0 0 - - - - - - Image
Japan Meteorological Agency Best Track Data | Correction Date : 2017-09-04
< Typhoon 201705 2017 Season Typhoon 201707 >

Help